createdAt,value
2019-03-17T00:00:33.088Z,9.97
2019-03-17T00:03:20.720Z,10.17
2019-03-17T00:06:08.152Z,9.73
2019-03-17T00:08:55.768Z,10.97
2019-03-17T00:11:43.540Z,10.30
2019-03-17T00:14:31.227Z,11.87
2019-03-17T00:17:18.665Z,11.83
2019-03-17T00:20:39.415Z,11.53
2019-03-17T00:23:27.152Z,12.37
2019-03-17T00:26:14.678Z,11.20
2019-03-17T00:29:02.363Z,11.10
2019-03-17T00:31:50.165Z,11.83
2019-03-17T00:34:44.003Z,11.57
2019-03-17T00:37:27.524Z,11.17
2019-03-17T00:40:15.136Z,13.07
2019-03-17T00:43:02.881Z,12.33
2019-03-17T00:45:50.772Z,12.43
2019-03-17T00:48:38.065Z,14.00
2019-03-17T00:51:25.677Z,13.43
2019-03-17T00:54:13.283Z,13.40
2019-03-17T00:57:00.959Z,14.07
2019-03-17T00:59:48.647Z,12.90
2019-03-17T01:02:36.293Z,13.00
2019-03-17T01:05:23.926Z,13.23
2019-03-17T01:08:11.674Z,12.20
2019-03-17T01:10:59.053Z,12.93
2019-03-17T01:13:46.537Z,14.13
2019-03-17T01:16:34.173Z,14.27
2019-03-17T01:19:21.829Z,13.17
2019-03-17T01:22:09.277Z,12.90
2019-03-17T01:24:56.937Z,13.07
2019-03-17T01:27:44.812Z,14.83
2019-03-17T01:30:32.473Z,12.57
2019-03-17T01:33:19.974Z,13.40
2019-03-17T01:36:07.553Z,14.20
2019-03-17T01:38:55.350Z,12.70
2019-03-17T01:41:42.987Z,12.77
2019-03-17T01:44:30.652Z,12.23
2019-03-17T01:47:18.126Z,11.60
2019-03-17T01:50:07.588Z,11.57
2019-03-17T01:52:55.257Z,11.93
2019-03-17T01:55:42.689Z,12.77
2019-03-17T01:58:30.489Z,11.30
2019-03-17T02:01:17.944Z,11.23
2019-03-17T02:04:05.661Z,10.67
2019-03-17T02:06:53.187Z,9.80
2019-03-17T02:09:40.953Z,10.83
2019-03-17T02:12:28.293Z,11.07
2019-03-17T02:15:15.897Z,11.20
2019-03-17T02:18:03.656Z,9.13
2019-03-17T02:20:51.404Z,8.57
2019-03-17T02:23:39.078Z,9.70
2019-03-17T02:26:26.557Z,10.20
2019-03-17T02:29:14.262Z,9.23
2019-03-17T02:32:01.941Z,9.27
2019-03-17T02:34:49.732Z,9.87
2019-03-17T02:37:37.302Z,8.23
2019-03-17T02:40:25.122Z,9.43
2019-03-17T02:43:13.330Z,8.10
2019-03-17T02:46:03.039Z,8.20
2019-03-17T02:48:50.677Z,7.87
2019-03-17T02:51:38.169Z,8.07
2019-03-17T02:54:25.905Z,9.50
2019-03-17T02:57:13.576Z,8.67
2019-03-17T03:00:01.119Z,9.40
2019-03-17T03:02:48.927Z,8.40
2019-03-17T03:05:36.452Z,9.00
2019-03-17T03:08:24.040Z,9.00
2019-03-17T03:11:11.269Z,10.10
2019-03-17T03:13:58.816Z,9.17
2019-03-17T03:16:46.457Z,9.90
2019-03-17T03:19:34.073Z,9.80
2019-03-17T03:22:21.455Z,8.90
2019-03-17T03:25:09.740Z,10.03
2019-03-17T03:27:57.311Z,9.30
2019-03-17T03:30:44.709Z,9.13
2019-03-17T03:33:32.654Z,9.67
2019-03-17T03:36:19.970Z,9.57
2019-03-17T03:39:07.432Z,9.30
2019-03-17T03:41:55.142Z,8.37
2019-03-17T03:44:42.978Z,8.73
2019-03-17T03:47:30.678Z,8.83
2019-03-17T03:50:18.267Z,7.83
2019-03-17T03:53:05.966Z,8.03
2019-03-17T03:55:53.438Z,8.43
2019-03-17T03:58:41.214Z,7.43
2019-03-17T04:01:28.521Z,6.97
2019-03-17T04:04:16.291Z,6.77
2019-03-17T04:07:03.981Z,7.20
2019-03-17T04:09:51.612Z,7.30
2019-03-17T04:12:39.116Z,7.47
2019-03-17T04:15:26.661Z,6.30
2019-03-17T04:18:14.300Z,6.97
2019-03-17T04:21:01.622Z,6.50
2019-03-17T04:23:49.264Z,6.80
2019-03-17T04:26:37.014Z,6.97
2019-03-17T04:29:24.742Z,6.30
2019-03-17T04:32:12.351Z,6.43
2019-03-17T04:34:59.888Z,6.87
2019-03-17T04:37:47.270Z,6.60
2019-03-17T04:40:34.948Z,6.53
2019-03-17T04:43:22.602Z,6.10
2019-03-17T04:46:10.372Z,6.20
2019-03-17T04:48:58.094Z,6.30
2019-03-17T04:51:45.880Z,5.97
2019-03-17T04:54:33.313Z,6.27
2019-03-17T04:57:20.957Z,5.87
2019-03-17T05:00:12.647Z,5.90
2019-03-17T05:03:00.262Z,6.03
2019-03-17T05:05:47.884Z,5.83
2019-03-17T05:08:35.487Z,6.23
2019-03-17T05:11:22.840Z,6.23
2019-03-17T05:14:10.449Z,6.07
2019-03-17T05:16:58.085Z,7.00
2019-03-17T05:19:45.810Z,6.93
2019-03-17T05:22:33.437Z,6.30
2019-03-17T05:25:20.802Z,6.00
2019-03-17T05:28:08.281Z,5.57
2019-03-17T05:30:55.944Z,4.90
2019-03-17T05:33:43.546Z,5.80
2019-03-17T05:36:31.018Z,5.33
2019-03-17T05:39:18.817Z,5.80
2019-03-17T05:42:06.372Z,5.30
2019-03-17T05:44:53.929Z,5.80
2019-03-17T05:47:41.628Z,5.43
2019-03-17T05:50:29.333Z,6.40
2019-03-17T05:53:16.958Z,6.43
2019-03-17T05:56:04.659Z,6.57
2019-03-17T05:58:52.077Z,6.53
2019-03-17T06:01:39.842Z,9.10
2019-03-17T06:04:27.246Z,7.60
2019-03-17T06:07:18.949Z,7.77
2019-03-17T06:10:04.842Z,9.40
2019-03-17T06:12:52.641Z,7.00
2019-03-17T06:15:40.358Z,10.93
2019-03-17T06:18:27.977Z,8.17
2019-03-17T06:21:15.545Z,7.67
2019-03-17T06:24:03.129Z,6.63
2019-03-17T06:26:50.585Z,11.93
2019-03-17T06:29:38.347Z,8.60
2019-03-17T06:32:26.238Z,9.73
2019-03-17T06:35:13.849Z,23.87
2019-03-17T06:38:01.521Z,12.77
2019-03-17T06:40:49.301Z,7.43
2019-03-17T06:43:36.833Z,9.67
2019-03-17T06:46:24.492Z,9.17
2019-03-17T06:49:12.024Z,13.83
2019-03-17T06:51:59.449Z,9.87
2019-03-17T06:54:47.224Z,5.70
2019-03-17T06:57:34.862Z,6.73
2019-03-17T07:00:22.361Z,6.27
2019-03-17T07:03:10.119Z,6.00
2019-03-17T07:05:57.480Z,5.20
2019-03-17T07:08:45.093Z,5.17
2019-03-17T07:11:32.477Z,5.10
2019-03-17T07:14:20.453Z,5.77
2019-03-17T07:17:08.141Z,5.27
2019-03-17T07:19:55.796Z,5.83
2019-03-17T07:22:43.482Z,5.30
2019-03-17T07:25:31.204Z,4.97
2019-03-17T07:28:18.639Z,5.13
2019-03-17T07:31:06.293Z,4.63
2019-03-17T07:33:54.046Z,4.83
2019-03-17T07:36:43.224Z,4.23
2019-03-17T07:39:30.655Z,4.40
2019-03-17T07:42:18.091Z,5.20
2019-03-17T07:45:08.054Z,5.40
2019-03-17T07:47:56.016Z,5.47
2019-03-17T07:50:43.431Z,5.60
2019-03-17T07:53:32.668Z,5.70
2019-03-17T07:56:20.295Z,7.07
2019-03-17T07:59:08.050Z,5.23
2019-03-17T08:01:55.570Z,5.43
2019-03-17T08:04:46.148Z,5.50
2019-03-17T08:07:32.471Z,5.37
2019-03-17T08:10:19.981Z,5.47
2019-03-17T08:13:07.425Z,5.47
2019-03-17T08:15:55.005Z,5.23
2019-03-17T08:18:42.785Z,5.00
2019-03-17T08:21:30.261Z,4.90
2019-03-17T08:24:17.986Z,5.60
2019-03-17T08:27:05.645Z,5.10
2019-03-17T08:29:53.241Z,4.40
2019-03-17T08:32:41.350Z,5.23
2019-03-17T08:35:29.237Z,4.50
2019-03-17T08:38:21.765Z,4.83
2019-03-17T08:41:06.070Z,4.90
2019-03-17T08:43:54.633Z,4.83
2019-03-17T08:46:42.260Z,3.93
2019-03-17T08:49:29.925Z,5.43
2019-03-17T08:52:17.596Z,4.30
2019-03-17T08:55:06.727Z,4.93
2019-03-17T08:57:54.110Z,4.10
2019-03-17T09:00:41.486Z,4.80
2019-03-17T09:03:28.941Z,4.20
2019-03-17T09:06:16.550Z,4.90
2019-03-17T09:09:06.980Z,4.27
2019-03-17T09:11:54.333Z,3.23
2019-03-17T09:14:41.771Z,1.90
2019-03-17T09:17:29.283Z,1.70
2019-03-17T09:20:16.685Z,1.77
2019-03-17T09:23:04.571Z,2.00
2019-03-17T09:25:52.168Z,2.03
2019-03-17T09:28:39.862Z,1.80
2019-03-17T09:31:27.244Z,1.90
2019-03-17T09:34:14.693Z,1.80
2019-03-17T09:37:03.966Z,2.10
2019-03-17T09:39:51.406Z,2.30
2019-03-17T09:42:38.761Z,2.60
2019-03-17T09:45:26.183Z,1.90
2019-03-17T09:48:13.754Z,2.17
2019-03-17T09:51:01.383Z,2.30
2019-03-17T09:53:48.908Z,2.53
2019-03-17T09:56:36.588Z,2.20
2019-03-17T09:59:23.997Z,2.67
2019-03-17T10:02:11.573Z,2.63
2019-03-17T10:04:59.202Z,2.47
2019-03-17T10:07:46.940Z,2.77
2019-03-17T10:10:34.365Z,2.40
2019-03-17T10:13:21.961Z,2.23
2019-03-17T10:16:09.723Z,2.27
2019-03-17T10:18:57.538Z,2.50
2019-03-17T10:21:44.940Z,2.97
2019-03-17T10:24:32.346Z,2.87
2019-03-17T10:27:20.109Z,2.40
2019-03-17T10:30:15.973Z,2.40
2019-03-17T10:33:03.510Z,2.60
2019-03-17T10:35:50.868Z,2.10
2019-03-17T10:38:38.188Z,2.80
2019-03-17T10:41:25.650Z,2.63
2019-03-17T10:44:13.324Z,2.70
2019-03-17T10:47:00.769Z,2.30
2019-03-17T10:49:48.145Z,2.70
2019-03-17T10:52:35.806Z,3.23
2019-03-17T10:55:23.220Z,2.40
2019-03-17T10:58:10.649Z,2.67
2019-03-17T11:00:58.164Z,2.50
2019-03-17T11:03:45.866Z,2.90
2019-03-17T11:06:33.311Z,2.30
2019-03-17T11:09:25.526Z,2.67
2019-03-17T11:12:10.817Z,2.70
2019-03-17T11:14:58.534Z,2.57
2019-03-17T11:17:46.257Z,2.70
2019-03-17T11:20:33.886Z,2.47
2019-03-17T11:23:21.559Z,2.50
2019-03-17T11:26:09.362Z,2.63
2019-03-17T11:28:56.904Z,2.10
2019-03-17T11:31:44.175Z,2.30
2019-03-17T11:34:31.592Z,2.50
2019-03-17T11:37:19.074Z,2.33
2019-03-17T11:40:09.585Z,2.20
2019-03-17T11:42:56.916Z,2.23
2019-03-17T11:45:44.369Z,2.20
2019-03-17T11:48:32.029Z,2.17
2019-03-17T11:51:19.776Z,2.10
2019-03-17T11:54:07.156Z,2.07
2019-03-17T11:56:54.923Z,2.20
2019-03-17T11:59:42.587Z,2.70
2019-03-17T12:02:30.301Z,2.33
2019-03-17T12:05:17.751Z,2.43
2019-03-17T12:08:05.373Z,2.53
2019-03-17T12:10:52.846Z,2.57
2019-03-17T12:13:40.422Z,2.37
2019-03-17T12:16:27.929Z,2.80
2019-03-17T12:19:15.449Z,2.57
2019-03-17T12:22:09.021Z,2.50
2019-03-17T12:24:52.938Z,2.60
2019-03-17T12:27:40.641Z,2.07
2019-03-17T12:30:28.444Z,2.30
2019-03-17T12:33:16.098Z,2.40
2019-03-17T12:36:03.776Z,2.50
2019-03-17T12:38:51.455Z,5.20
2019-03-17T12:41:38.975Z,3.17
2019-03-17T12:44:26.582Z,2.37
2019-03-17T12:47:13.934Z,3.00
2019-03-17T12:50:01.589Z,4.00
2019-03-17T12:52:49.027Z,4.07
2019-03-17T12:55:36.693Z,3.47
2019-03-17T12:58:24.275Z,2.90
2019-03-17T13:01:12.036Z,2.57
2019-03-17T13:03:59.525Z,2.20
2019-03-17T13:06:47.162Z,3.33
2019-03-17T13:09:34.660Z,2.20
2019-03-17T13:12:22.172Z,2.00
2019-03-17T13:15:10.948Z,4.30
2019-03-17T13:17:58.580Z,4.10
2019-03-17T13:20:46.043Z,2.13
2019-03-17T13:23:33.381Z,3.80
2019-03-17T13:26:20.716Z,2.77
2019-03-17T13:29:08.093Z,6.17
2019-03-17T13:31:55.610Z,2.20
2019-03-17T13:34:43.165Z,4.50
2019-03-17T13:37:30.859Z,3.70
2019-03-17T13:40:28.695Z,3.20
2019-03-17T13:43:09.049Z,1.67
2019-03-17T13:45:56.424Z,2.57
2019-03-17T13:48:44.011Z,1.47
2019-03-17T13:51:31.493Z,1.90
2019-03-17T13:54:19.133Z,1.97
2019-03-17T13:57:06.857Z,1.47
2019-03-17T13:59:54.234Z,2.30
2019-03-17T14:02:41.875Z,1.60
2019-03-17T14:05:29.545Z,1.83
2019-03-17T14:08:17.199Z,1.10
2019-03-17T14:11:04.774Z,1.30
2019-03-17T14:13:52.306Z,1.17
2019-03-17T14:16:39.875Z,2.30
2019-03-17T14:19:27.237Z,1.80
2019-03-17T14:22:14.617Z,1.30
2019-03-17T14:25:02.116Z,0.60
2019-03-17T14:27:49.485Z,1.00
2019-03-17T14:30:37.110Z,1.07
2019-03-17T14:33:24.899Z,1.50
2019-03-17T14:36:12.521Z,0.90
2019-03-17T14:38:59.874Z,0.80
2019-03-17T14:41:47.530Z,0.90
2019-03-17T14:44:35.144Z,1.20
2019-03-17T14:47:22.777Z,2.33
2019-03-17T14:50:20.381Z,1.40
2019-03-17T14:53:08.028Z,0.80
2019-03-17T14:55:55.581Z,0.93
2019-03-17T14:58:43.253Z,0.80
2019-03-17T15:01:30.737Z,0.70
2019-03-17T15:04:18.395Z,8.07
2019-03-17T15:07:06.022Z,2.63
2019-03-17T15:09:53.697Z,1.43
2019-03-17T15:12:41.225Z,2.10
2019-03-17T15:15:28.891Z,1.70
2019-03-17T15:18:16.297Z,1.47
2019-03-17T15:21:03.977Z,1.20
2019-03-17T15:23:51.682Z,0.90
2019-03-17T15:26:39.357Z,3.80
2019-03-17T15:29:26.743Z,1.40
2019-03-17T15:32:14.262Z,2.17
2019-03-17T15:35:01.641Z,1.73
2019-03-17T15:37:49.381Z,1.37
2019-03-17T15:40:36.776Z,1.53
2019-03-17T15:43:24.532Z,1.17
2019-03-17T15:46:12.223Z,1.17
2019-03-17T15:48:59.925Z,1.13
2019-03-17T15:51:47.635Z,1.10
2019-03-17T15:54:35.050Z,1.33
2019-03-17T15:57:22.412Z,1.20
2019-03-17T16:00:25.397Z,3.37
2019-03-17T16:03:10.064Z,1.70
2019-03-17T16:05:57.456Z,1.40
2019-03-17T16:08:44.941Z,1.90
2019-03-17T16:11:32.697Z,1.13
2019-03-17T16:14:20.189Z,1.40
2019-03-17T16:17:07.855Z,1.40
2019-03-17T16:19:55.438Z,1.50
2019-03-17T16:22:43.231Z,1.60
2019-03-17T16:25:38.257Z,2.00
2019-03-17T16:28:25.537Z,1.90
2019-03-17T16:31:12.922Z,1.83
2019-03-17T16:34:00.590Z,2.50
2019-03-17T16:36:48.373Z,3.57
2019-03-17T16:39:36.094Z,3.37
2019-03-17T16:42:23.501Z,1.70
2019-03-17T16:45:13.842Z,1.90
2019-03-17T16:48:01.674Z,1.30
2019-03-17T16:50:49.090Z,2.90
2019-03-17T16:53:36.471Z,1.50
2019-03-17T16:56:24.118Z,3.07
2019-03-17T16:59:11.925Z,2.50
2019-03-17T17:01:59.514Z,2.20
2019-03-17T17:04:46.991Z,1.83
2019-03-17T17:07:34.436Z,2.13
2019-03-17T17:10:29.665Z,2.00
2019-03-17T17:13:17.409Z,3.03
2019-03-17T17:16:05.021Z,2.73
2019-03-17T17:18:52.309Z,1.87
2019-03-17T17:21:40.058Z,1.40
2019-03-17T17:24:27.828Z,1.73
2019-03-17T17:27:15.542Z,1.83
2019-03-17T17:30:04.671Z,1.30
2019-03-17T17:32:52.157Z,1.57
2019-03-17T17:35:39.804Z,1.20
2019-03-17T17:38:27.264Z,1.50
2019-03-17T17:41:14.806Z,1.70
2019-03-17T17:44:02.406Z,6.40
2019-03-17T17:46:49.772Z,4.83
2019-03-17T17:49:37.389Z,9.67
2019-03-17T17:52:27.961Z,2.90
2019-03-17T17:55:14.395Z,2.90
2019-03-17T17:58:02.161Z,2.20
2019-03-17T18:00:50.389Z,1.63
2019-03-17T18:03:38.063Z,1.60
2019-03-17T18:06:25.699Z,1.33
2019-03-17T18:09:13.119Z,1.33
2019-03-17T18:12:00.879Z,1.30
2019-03-17T18:14:48.357Z,1.63
2019-03-17T18:17:36.097Z,2.50
2019-03-17T18:20:23.781Z,2.00
2019-03-17T18:23:17.833Z,1.90
2019-03-17T18:26:00.329Z,2.27
2019-03-17T18:28:48.114Z,3.97
2019-03-17T18:31:35.705Z,3.13
2019-03-17T18:34:23.269Z,2.43
2019-03-17T18:37:10.946Z,2.40
2019-03-17T18:39:58.698Z,3.10
2019-03-17T18:42:46.379Z,1.70
2019-03-17T18:45:34.141Z,2.10
2019-03-17T18:48:21.510Z,2.37
2019-03-17T18:51:08.921Z,1.83
2019-03-17T18:53:56.390Z,1.70
2019-03-17T18:56:44.032Z,3.63
2019-03-17T18:59:31.704Z,2.00
2019-03-17T19:02:19.387Z,1.60
2019-03-17T19:05:09.438Z,2.17
2019-03-17T19:07:57.086Z,1.90
2019-03-17T19:10:44.785Z,1.70
2019-03-17T19:13:32.332Z,1.60
2019-03-17T19:16:19.734Z,1.50
2019-03-17T19:19:07.308Z,1.70
2019-03-17T19:21:54.846Z,1.70
2019-03-17T19:24:42.308Z,1.40
2019-03-17T19:27:29.666Z,1.40
2019-03-17T19:30:21.422Z,1.30
2019-03-17T19:33:09.073Z,1.33
2019-03-17T19:35:56.817Z,1.30
2019-03-17T19:38:44.430Z,1.80
2019-03-17T19:41:32.164Z,1.33
2019-03-17T19:44:19.537Z,1.60
2019-03-17T19:47:07.173Z,1.43
2019-03-17T19:49:54.736Z,1.40
2019-03-17T19:52:42.221Z,1.63
2019-03-17T19:55:29.754Z,1.47
2019-03-17T19:58:17.487Z,1.80
2019-03-17T20:01:04.804Z,1.60
2019-03-17T20:03:52.242Z,1.57
2019-03-17T20:06:39.878Z,1.63
2019-03-17T20:09:27.544Z,1.53
2019-03-17T20:12:15.051Z,1.53
2019-03-17T20:15:02.625Z,1.40
2019-03-17T20:17:50.248Z,1.40
2019-03-17T20:20:37.621Z,1.60
2019-03-17T20:23:25.535Z,1.50
2019-03-17T20:26:13.232Z,2.23
2019-03-17T20:29:00.955Z,2.60
2019-03-17T20:31:48.494Z,1.83
2019-03-17T20:34:35.941Z,2.33
2019-03-17T20:37:23.396Z,1.33
2019-03-17T20:40:18.245Z,1.30
2019-03-17T20:43:05.596Z,1.80
2019-03-17T20:45:53.207Z,1.50
2019-03-17T20:48:40.694Z,2.00
2019-03-17T20:51:28.445Z,1.60
2019-03-17T20:54:15.862Z,1.50
2019-03-17T20:57:03.517Z,2.27
2019-03-17T20:59:51.043Z,2.20
2019-03-17T21:02:38.710Z,1.70
2019-03-17T21:05:26.387Z,2.00
2019-03-17T21:08:13.839Z,1.70
2019-03-17T21:11:01.408Z,1.77
2019-03-17T21:13:48.993Z,2.17
2019-03-17T21:16:36.460Z,1.27
2019-03-17T21:19:24.233Z,2.13
2019-03-17T21:22:11.826Z,1.80
2019-03-17T21:24:59.647Z,1.93
2019-03-17T21:27:47.141Z,3.97
2019-03-17T21:30:34.602Z,1.53
2019-03-17T21:33:22.079Z,2.40
2019-03-17T21:36:09.772Z,4.53
2019-03-17T21:38:57.242Z,1.90
2019-03-17T21:41:44.796Z,4.60
2019-03-17T21:44:32.245Z,2.30
2019-03-17T21:47:19.888Z,1.90
2019-03-17T21:50:13.125Z,1.83
2019-03-17T21:53:00.843Z,3.07
2019-03-17T21:55:48.429Z,1.60
2019-03-17T21:58:35.878Z,1.53
2019-03-17T22:01:23.481Z,1.30
2019-03-17T22:04:10.957Z,1.47
2019-03-17T22:06:58.365Z,1.57
2019-03-17T22:09:45.893Z,1.37
2019-03-17T22:12:33.296Z,1.30
2019-03-17T22:15:21.026Z,1.30
2019-03-17T22:18:08.451Z,1.40
2019-03-17T22:20:55.843Z,1.20
2019-03-17T22:23:43.292Z,1.30
2019-03-17T22:26:31.027Z,1.30
2019-03-17T22:29:18.935Z,1.30
2019-03-17T22:32:06.383Z,1.40
2019-03-17T22:34:54.034Z,1.47
2019-03-17T22:37:41.636Z,1.43
2019-03-17T22:40:29.295Z,1.50
2019-03-17T22:43:17.028Z,1.40
2019-03-17T22:46:04.833Z,1.23
2019-03-17T22:48:52.296Z,1.40
2019-03-17T22:51:39.949Z,1.30
2019-03-17T22:54:27.679Z,1.20
2019-03-17T22:57:15.252Z,1.50
2019-03-17T23:00:03.047Z,1.07
2019-03-17T23:02:50.702Z,1.30
2019-03-17T23:05:38.419Z,1.20
2019-03-17T23:08:25.845Z,1.40
2019-03-17T23:11:13.494Z,1.37
2019-03-17T23:14:01.188Z,1.30
2019-03-17T23:16:48.654Z,1.30
2019-03-17T23:19:37.060Z,1.20
2019-03-17T23:22:24.683Z,1.30
2019-03-17T23:25:12.621Z,1.50
2019-03-17T23:28:00.417Z,1.30
2019-03-17T23:30:48.225Z,1.30
2019-03-17T23:33:35.870Z,1.57
2019-03-17T23:36:23.341Z,1.40
2019-03-17T23:39:11.145Z,1.73
2019-03-17T23:41:58.882Z,1.30
2019-03-17T23:44:49.191Z,1.10
2019-03-17T23:47:35.797Z,1.23
2019-03-17T23:50:23.600Z,1.60
2019-03-17T23:53:11.201Z,1.23
2019-03-17T23:55:58.783Z,1.43
2019-03-17T23:58:47.604Z,1.37
